createdAt,value
2023-02-11T00:01:28.922Z,102975.50
2023-02-11T00:03:56.224Z,102982.47
2023-02-11T00:06:24.289Z,102979.84
2023-02-11T00:08:51.704Z,102976.38
2023-02-11T00:11:20.705Z,102979.88
2023-02-11T00:13:48.397Z,102980.75
2023-02-11T00:16:18.235Z,102971.19
2023-02-11T00:18:45.702Z,102962.50
2023-02-11T00:21:14.737Z,102969.50
2023-02-11T00:23:42.528Z,102970.34
2023-02-11T00:26:12.670Z,102964.28
2023-02-11T00:28:40.054Z,102966.88
2023-02-11T00:31:07.475Z,102953.00
2023-02-11T00:33:36.106Z,102959.94
2023-02-11T00:36:04.610Z,102959.06
2023-02-11T00:38:33.452Z,102955.59
2023-02-11T00:41:00.372Z,102968.63
2023-02-11T00:43:27.645Z,102958.22
2023-02-11T00:45:54.626Z,102972.13
2023-02-11T00:48:21.852Z,102969.50
2023-02-11T00:50:50.464Z,102966.88
2023-02-11T00:53:17.786Z,102962.53
2023-02-11T00:55:44.638Z,102960.81
2023-02-11T00:58:11.906Z,102964.28
2023-02-11T01:00:39.039Z,102963.41
2023-02-11T01:03:06.865Z,102951.28
2023-02-11T01:05:34.400Z,102957.34
2023-02-11T01:08:03.270Z,102958.22
2023-02-11T01:10:30.268Z,102958.22
2023-02-11T01:12:57.444Z,102958.22
2023-02-11T01:15:24.630Z,102959.09
2023-02-11T01:17:52.033Z,102955.59
2023-02-11T01:20:22.174Z,102964.31
2023-02-11T01:22:49.376Z,102959.09
2023-02-11T01:25:17.968Z,102947.81
2023-02-11T01:27:45.229Z,102944.34
2023-02-11T01:30:13.965Z,102952.16
2023-02-11T01:32:41.374Z,102947.84
2023-02-11T01:35:08.591Z,102940.03
2023-02-11T01:37:36.490Z,102929.59
2023-02-11T01:40:05.850Z,102933.94
2023-02-11T01:42:34.418Z,102924.38
2023-02-11T01:45:22.161Z,102908.75
2023-02-11T01:47:49.298Z,102928.69
2023-02-11T01:50:16.270Z,102915.63
2023-02-11T01:52:46.296Z,102921.69
2023-02-11T01:55:32.371Z,102911.25
2023-02-11T01:58:05.100Z,102911.25
2023-02-11T02:00:36.451Z,102900.84
2023-02-11T02:03:09.825Z,102910.38
2023-02-11T02:05:40.938Z,102903.41
2023-02-11T02:08:15.273Z,102907.72
2023-02-11T02:10:45.836Z,102903.41
2023-02-11T02:13:15.118Z,102897.28
2023-02-11T02:15:49.574Z,102886.94
2023-02-11T02:18:31.326Z,102886.94
2023-02-11T02:21:28.267Z,102894.75
2023-02-11T02:24:18.993Z,102893.00
2023-02-11T02:27:18.412Z,102894.78
2023-02-11T02:30:09.606Z,102893.03
2023-02-11T02:32:49.554Z,102873.91
2023-02-11T02:35:29.641Z,102880.00
2023-02-11T02:38:06.374Z,102880.03
2023-02-11T02:40:41.022Z,102882.59
2023-02-11T02:43:10.710Z,102871.31
2023-02-11T02:45:38.013Z,102871.31
2023-02-11T02:48:07.066Z,102867.88
2023-02-11T02:50:36.520Z,102876.53
2023-02-11T02:53:18.859Z,102878.22
2023-02-11T02:55:59.139Z,102876.50
2023-02-11T02:59:03.780Z,102868.69
2023-02-11T03:01:40.508Z,102873.03
2023-02-11T03:04:16.861Z,102869.56
2023-02-11T03:06:52.446Z,102869.56
2023-02-11T03:09:24.172Z,102869.53
2023-02-11T03:11:51.522Z,102876.44
2023-02-11T03:14:20.521Z,102871.25
2023-02-11T03:16:50.211Z,102876.41
2023-02-11T03:19:22.835Z,102873.84
2023-02-11T03:21:52.318Z,102871.28
2023-02-11T03:24:24.378Z,102868.72
2023-02-11T03:26:54.165Z,102866.09
2023-02-11T03:29:32.457Z,102864.28
2023-02-11T03:32:04.548Z,102863.44
2023-02-11T03:34:41.382Z,102871.13
2023-02-11T03:37:13.672Z,102858.03
2023-02-11T03:39:46.397Z,102860.56
2023-02-11T03:42:15.373Z,102862.31
2023-02-11T03:44:50.049Z,102852.81
2023-02-11T03:47:21.264Z,102857.19
2023-02-11T03:49:52.979Z,102868.44
2023-02-11T03:52:22.131Z,102869.31
2023-02-11T03:54:54.551Z,102859.81
2023-02-11T03:57:21.759Z,102863.28
2023-02-11T03:59:54.428Z,102861.53
2023-02-11T04:02:23.483Z,102855.44
2023-02-11T04:04:52.031Z,102850.25
2023-02-11T04:07:19.280Z,102838.97
2023-02-11T04:09:46.197Z,102839.88
2023-02-11T04:12:13.460Z,102845.88
2023-02-11T04:14:40.408Z,102843.25
2023-02-11T04:17:07.642Z,102839.72
2023-02-11T04:19:34.706Z,102842.38
2023-02-11T04:22:03.377Z,102846.78
2023-02-11T04:24:30.524Z,102852.88
2023-02-11T04:26:57.800Z,102846.78
2023-02-11T04:29:24.988Z,102840.72
2023-02-11T04:31:52.354Z,102847.69
2023-02-11T04:34:19.299Z,102840.81
2023-02-11T04:36:46.514Z,102842.53
2023-02-11T04:39:14.730Z,102839.88
2023-02-11T04:41:42.114Z,102837.28
2023-02-11T04:44:09.265Z,102837.28
2023-02-11T04:46:36.708Z,102836.41
2023-02-11T04:49:04.113Z,102837.16
2023-02-11T04:51:31.918Z,102837.09
2023-02-11T04:53:59.120Z,102835.25
2023-02-11T04:56:27.833Z,102836.09
2023-02-11T04:58:54.778Z,102841.28
2023-02-11T05:01:22.139Z,102838.72
2023-02-11T05:03:49.522Z,102837.00
2023-02-11T05:06:16.950Z,102850.03
2023-02-11T05:08:43.826Z,102848.25
2023-02-11T05:11:16.228Z,102848.22
2023-02-11T05:13:44.549Z,102847.34
2023-02-11T05:16:12.744Z,102859.38
2023-02-11T05:18:40.223Z,102857.59
2023-02-11T05:21:08.586Z,102853.22
2023-02-11T05:23:36.472Z,102860.16
2023-02-11T05:26:04.469Z,102855.84
2023-02-11T05:28:31.502Z,102855.03
2023-02-11T05:31:02.460Z,102851.56
2023-02-11T05:33:29.511Z,102843.72
2023-02-11T05:35:58.836Z,102852.41
2023-02-11T05:38:26.023Z,102847.19
2023-02-11T05:40:53.983Z,102861.94
2023-02-11T05:43:20.950Z,102860.16
2023-02-11T05:45:48.748Z,102841.03
2023-02-11T05:48:17.817Z,102842.81
2023-02-11T05:50:44.816Z,102848.91
2023-02-11T05:53:12.329Z,102845.47
2023-02-11T05:55:39.845Z,102850.69
2023-02-11T05:58:07.951Z,102833.47
2023-02-11T06:00:35.332Z,102830.00
2023-02-11T06:03:04.249Z,102828.25
2023-02-11T06:05:34.592Z,102839.53
2023-02-11T06:08:01.532Z,102837.03
2023-02-11T06:10:28.764Z,102838.00
2023-02-11T06:12:55.906Z,102845.94
2023-02-11T06:15:23.076Z,102839.94
2023-02-11T06:17:50.010Z,102840.81
2023-02-11T06:20:17.337Z,102840.91
2023-02-11T06:22:45.674Z,102826.19
2023-02-11T06:25:13.303Z,102840.09
2023-02-11T06:27:40.452Z,102837.56
2023-02-11T06:30:09.181Z,102835.81
2023-02-11T06:32:44.504Z,102832.41
2023-02-11T06:35:13.461Z,102832.41
2023-02-11T06:37:41.118Z,102821.16
2023-02-11T06:40:10.500Z,102824.63
2023-02-11T06:42:39.143Z,102825.50
2023-02-11T06:45:09.052Z,102822.88
2023-02-11T06:47:35.884Z,102826.31
2023-02-11T06:50:03.556Z,102824.59
2023-02-11T06:52:30.299Z,102828.94
2023-02-11T06:54:57.369Z,102823.78
2023-02-11T06:57:25.503Z,102835.06
2023-02-11T06:59:52.773Z,102833.31
2023-02-11T07:02:20.971Z,102832.41
2023-02-11T07:04:48.458Z,102821.16
2023-02-11T07:07:15.245Z,102819.41
2023-02-11T07:09:42.309Z,102829.81
2023-02-11T07:12:09.977Z,102828.94
2023-02-11T07:14:38.708Z,102828.97
2023-02-11T07:17:05.436Z,102834.13
2023-02-11T07:19:32.855Z,102825.38
2023-02-11T07:21:59.714Z,102827.06
2023-02-11T07:24:26.916Z,102826.22
2023-02-11T07:26:53.642Z,102816.69
2023-02-11T07:29:20.666Z,102826.22
2023-02-11T07:31:49.039Z,102815.00
2023-02-11T07:34:16.026Z,102812.34
2023-02-11T07:36:45.898Z,102812.34
2023-02-11T07:39:12.954Z,102812.31
2023-02-11T07:41:39.814Z,102813.16
2023-02-11T07:44:07.130Z,102814.03
2023-02-11T07:46:35.680Z,102825.28
2023-02-11T07:49:04.276Z,102823.53
2023-02-11T07:51:31.396Z,102825.19
2023-02-11T07:53:59.338Z,102824.19
2023-02-11T07:56:26.194Z,102820.69
2023-02-11T07:58:54.273Z,102815.34
2023-02-11T08:01:25.875Z,102807.47
2023-02-11T08:03:53.058Z,102817.81
2023-02-11T08:06:22.244Z,102802.13
2023-02-11T08:08:49.844Z,102803.84
2023-02-11T08:11:18.060Z,102814.84
2023-02-11T08:13:45.183Z,102811.25
2023-02-11T08:16:17.508Z,102807.53
2023-02-11T08:18:44.484Z,102808.41
2023-02-11T08:21:11.226Z,102800.69
2023-02-11T08:23:43.238Z,102799.81
2023-02-11T08:26:12.373Z,102793.50
2023-02-11T08:28:39.964Z,102799.28
2023-02-11T08:31:07.302Z,102792.97
2023-02-11T08:33:34.957Z,102797.28
2023-02-11T08:36:03.447Z,102790.03
2023-02-11T08:38:30.476Z,102790.66
2023-02-11T08:40:59.824Z,102780.00
2023-02-11T08:43:26.736Z,102781.56
2023-02-11T08:45:53.924Z,102778.13
2023-02-11T08:48:21.274Z,102776.97
2023-02-11T08:50:47.937Z,102781.00
2023-02-11T08:53:14.909Z,102779.00
2023-02-11T08:55:47.968Z,102767.78
2023-02-11T08:58:19.041Z,102765.28
2023-02-11T09:00:46.075Z,102765.19
2023-02-11T09:03:13.100Z,102762.44
2023-02-11T09:05:41.039Z,102762.97
2023-02-11T09:08:07.949Z,102760.00
2023-02-11T09:10:35.255Z,102755.63
2023-02-11T09:13:02.479Z,102745.66
2023-02-11T09:15:30.891Z,102761.72
2023-02-11T09:17:58.206Z,102761.34
2023-02-11T09:20:26.514Z,102755.13
2023-02-11T09:22:53.901Z,102755.75
2023-02-11T09:25:20.768Z,102752.00
2023-02-11T09:27:47.901Z,102750.25
2023-02-11T09:30:14.674Z,102740.84
2023-02-11T09:32:43.065Z,102740.56
2023-02-11T09:35:10.032Z,102726.97
2023-02-11T09:37:37.566Z,102728.34
2023-02-11T09:40:04.909Z,102728.72
2023-02-11T09:42:40.478Z,102728.38
2023-02-11T09:45:12.853Z,102728.09
2023-02-11T09:47:45.733Z,102732.22
2023-02-11T09:50:15.728Z,102733.94
2023-02-11T09:52:45.553Z,102721.81
2023-02-11T09:55:17.107Z,102727.28
2023-02-11T09:57:44.363Z,102719.47
2023-02-11T10:00:17.236Z,102710.03
2023-02-11T10:02:53.752Z,102700.19
2023-02-11T10:05:26.800Z,102700.94
2023-02-11T10:07:58.762Z,102699.72
2023-02-11T10:10:35.433Z,102697.75
2023-02-11T10:13:09.376Z,102684.03
2023-02-11T10:15:42.307Z,102688.81
2023-02-11T10:18:21.037Z,102687.28
2023-02-11T10:20:53.875Z,102678.66
2023-02-11T10:23:21.961Z,102679.78
2023-02-11T10:25:50.790Z,102677.81
2023-02-11T10:28:19.155Z,102670.16
2023-02-11T10:30:49.827Z,102679.34
2023-02-11T10:33:21.045Z,102669.75
2023-02-11T10:35:49.319Z,102657.44
2023-02-11T10:38:16.495Z,102668.25
2023-02-11T10:40:43.524Z,102660.88
2023-02-11T10:43:12.644Z,102662.19
2023-02-11T10:45:42.240Z,102659.06
2023-02-11T10:48:24.248Z,102654.19
2023-02-11T10:51:06.734Z,102656.53
2023-02-11T10:53:34.904Z,102641.75
2023-02-11T10:56:03.560Z,102638.72
2023-02-11T10:58:31.585Z,102636.75
2023-02-11T11:00:59.840Z,102641.88
2023-02-11T11:03:28.638Z,102634.41
2023-02-11T11:05:58.691Z,102625.50
2023-02-11T11:08:37.703Z,102622.84
2023-02-11T11:11:05.268Z,102608.22
2023-02-11T11:13:33.204Z,102602.09
2023-02-11T11:16:18.575Z,102607.72
2023-02-11T11:18:46.163Z,102604.28
2023-02-11T11:21:16.392Z,102590.53
2023-02-11T11:23:48.524Z,102591.31
2023-02-11T11:26:16.196Z,102587.22
2023-02-11T11:28:51.492Z,102583.94
2023-02-11T11:31:20.512Z,102590.75
2023-02-11T11:33:48.240Z,102579.16
2023-02-11T11:36:18.297Z,102584.38
2023-02-11T11:38:47.292Z,102585.69
2023-02-11T11:41:19.662Z,102579.03
2023-02-11T11:43:55.829Z,102569.41
2023-02-11T11:46:27.081Z,102569.28
2023-02-11T11:48:56.479Z,102558.47
2023-02-11T11:51:25.377Z,102544.16
2023-02-11T11:53:56.338Z,102545.28
2023-02-11T11:56:27.342Z,102533.00
2023-02-11T11:58:54.697Z,102535.78
2023-02-11T12:01:28.424Z,102546.06
2023-02-11T12:04:18.074Z,102542.41
2023-02-11T12:06:52.796Z,102536.00
2023-02-11T12:09:24.559Z,102531.75
2023-02-11T12:12:02.603Z,102527.03
2023-02-11T12:14:35.158Z,102530.34
2023-02-11T12:17:07.329Z,102521.47
2023-02-11T12:19:42.168Z,102509.38
2023-02-11T12:22:12.261Z,102514.25
2023-02-11T12:24:54.765Z,102517.47
2023-02-11T12:27:28.671Z,102507.94
2023-02-11T12:30:03.870Z,102498.66
2023-02-11T12:32:37.268Z,102500.88
2023-02-11T12:35:21.998Z,102498.19
2023-02-11T12:38:04.595Z,102487.56
2023-02-11T12:40:36.892Z,102482.28
2023-02-11T12:43:18.822Z,102479.59
2023-02-11T12:46:01.026Z,102473.81
2023-02-11T12:48:36.807Z,102467.75
2023-02-11T12:51:10.187Z,102472.41
2023-02-11T12:53:55.586Z,102463.41
2023-02-11T12:56:26.938Z,102459.00
2023-02-11T12:58:55.954Z,102451.78
2023-02-11T13:01:26.385Z,102457.91
2023-02-11T13:03:54.794Z,102455.97
2023-02-11T13:06:24.948Z,102458.53
2023-02-11T13:08:56.191Z,102452.72
2023-02-11T13:11:25.082Z,102452.41
2023-02-11T13:13:55.539Z,102454.84
2023-02-11T13:16:30.908Z,102451.28
2023-02-11T13:19:01.588Z,102440.91
2023-02-11T13:21:34.894Z,102432.25
2023-02-11T13:24:08.388Z,102441.91
2023-02-11T13:26:41.194Z,102435.16
2023-02-11T13:29:14.782Z,102425.13
2023-02-11T13:31:41.837Z,102411.78
2023-02-11T13:34:23.275Z,102413.72
2023-02-11T13:36:55.793Z,102410.25
2023-02-11T13:39:24.505Z,102404.19
2023-02-11T13:42:01.952Z,102401.56
2023-02-11T13:44:29.028Z,102405.06
2023-02-11T13:46:58.200Z,102394.69
2023-02-11T13:49:27.941Z,102383.22
2023-02-11T13:51:55.762Z,102397.22
2023-02-11T13:54:34.442Z,102379.75
2023-02-11T13:57:26.328Z,102392.47
2023-02-11T13:59:54.236Z,102388.34
2023-02-11T14:02:41.771Z,102379.28
2023-02-11T14:05:44.095Z,102368.16
2023-02-11T14:08:37.672Z,102361.78
2023-02-11T14:11:12.351Z,102366.06
2023-02-11T14:14:06.595Z,102359.84
2023-02-11T14:16:38.308Z,102362.13
2023-02-11T14:19:06.775Z,102364.06
2023-02-11T14:21:35.639Z,102362.66
2023-02-11T14:24:21.799Z,102368.53
2023-02-11T14:26:52.385Z,102373.47
2023-02-11T14:29:24.753Z,102367.66
2023-02-11T14:31:56.444Z,102368.88
2023-02-11T14:34:38.014Z,102354.19
2023-02-11T14:37:22.538Z,102345.00
2023-02-11T14:39:57.852Z,102344.72
2023-02-11T14:42:27.762Z,102340.72
2023-02-11T14:44:55.943Z,102342.78
2023-02-11T14:47:25.457Z,102335.94
2023-02-11T14:49:53.380Z,102309.94
2023-02-11T14:52:25.650Z,102335.63
2023-02-11T14:54:58.935Z,102329.28
2023-02-11T14:57:28.054Z,102329.78
2023-02-11T14:59:55.738Z,102323.81
2023-02-11T15:02:23.687Z,102319.66
2023-02-11T15:04:50.886Z,102318.56
2023-02-11T15:07:18.309Z,102320.00
2023-02-11T15:09:47.059Z,102323.28
2023-02-11T15:12:18.664Z,102315.75
2023-02-11T15:14:48.782Z,102312.50
2023-02-11T15:17:17.430Z,102312.88
2023-02-11T15:19:47.352Z,102302.50
2023-02-11T15:22:21.873Z,102312.34
2023-02-11T15:24:58.193Z,102308.22
2023-02-11T15:27:25.800Z,102318.13
2023-02-11T15:29:54.205Z,102311.41
2023-02-11T15:32:22.053Z,102317.75
2023-02-11T15:34:50.491Z,102319.72
2023-02-11T15:37:19.500Z,102320.00
2023-02-11T15:39:46.736Z,102320.19
2023-02-11T15:42:22.591Z,102323.94
2023-02-11T15:44:56.552Z,102327.88
2023-02-11T15:47:24.986Z,102331.66
2023-02-11T15:49:52.121Z,102332.72
2023-02-11T15:52:23.337Z,102327.53
2023-02-11T15:54:51.184Z,102314.66
2023-02-11T15:57:17.991Z,102317.63
2023-02-11T15:59:47.598Z,102314.72
2023-02-11T16:02:17.015Z,102315.81
2023-02-11T16:04:51.248Z,102311.00
2023-02-11T16:07:32.799Z,102310.47
2023-02-11T16:09:59.904Z,102321.19
2023-02-11T16:12:27.193Z,102323.19
2023-02-11T16:14:55.822Z,102319.88
2023-02-11T16:17:25.039Z,102322.66
